sensor_id;sensor_type;location;lat;lon;timestamp;P1;durP1;ratioP1;P2;durP2;ratioP2
38023;SDS011;23834;48.080;11.682;2023-07-20T00:00:21;2.53;;;2.33;;
38023;SDS011;23834;48.080;11.682;2023-07-20T00:02:49;2.40;;;2.20;;
38023;SDS011;23834;48.080;11.682;2023-07-20T00:05:15;2.87;;;2.57;;
38023;SDS011;23834;48.080;11.682;2023-07-20T00:07:43;2.57;;;2.30;;
38023;SDS011;23834;48.080;11.682;2023-07-20T00:10:08;2.17;;;2.07;;
38023;SDS011;23834;48.080;11.682;2023-07-20T00:12:33;4.17;;;2.83;;
38023;SDS011;23834;48.080;11.682;2023-07-20T00:14:58;2.50;;;2.30;;
38023;SDS011;23834;48.080;11.682;2023-07-20T00:17:24;2.50;;;2.30;;
38023;SDS011;23834;48.080;11.682;2023-07-20T00:19:49;2.30;;;2.10;;
38023;SDS011;23834;48.080;11.682;2023-07-20T00:22:14;4.77;;;2.27;;
38023;SDS011;23834;48.080;11.682;2023-07-20T00:24:40;2.67;;;2.47;;
38023;SDS011;23834;48.080;11.682;2023-07-20T00:27:05;2.20;;;2.10;;
38023;SDS011;23834;48.080;11.682;2023-07-20T00:29:30;2.73;;;2.50;;
38023;SDS011;23834;48.080;11.682;2023-07-20T00:31:55;2.50;;;2.30;;
38023;SDS011;23834;48.080;11.682;2023-07-20T00:34:21;3.00;;;2.70;;
38023;SDS011;23834;48.080;11.682;2023-07-20T00:36:46;3.30;;;2.30;;
38023;SDS011;23834;48.080;11.682;2023-07-20T00:39:11;2.80;;;2.60;;
38023;SDS011;23834;48.080;11.682;2023-07-20T00:41:36;2.97;;;2.70;;
38023;SDS011;23834;48.080;11.682;2023-07-20T00:44:02;2.60;;;2.40;;
38023;SDS011;23834;48.080;11.682;2023-07-20T00:46:27;2.23;;;2.13;;
38023;SDS011;23834;48.080;11.682;2023-07-20T00:48:52;1.97;;;1.77;;
38023;SDS011;23834;48.080;11.682;2023-07-20T00:51:18;3.17;;;2.33;;
38023;SDS011;23834;48.080;11.682;2023-07-20T00:53:43;1.83;;;1.73;;
38023;SDS011;23834;48.080;11.682;2023-07-20T00:56:08;2.40;;;2.20;;
38023;SDS011;23834;48.080;11.682;2023-07-20T00:58:33;2.20;;;2.10;;
38023;SDS011;23834;48.080;11.682;2023-07-20T01:00:59;2.70;;;2.50;;
38023;SDS011;23834;48.080;11.682;2023-07-20T01:03:24;2.53;;;2.33;;
38023;SDS011;23834;48.080;11.682;2023-07-20T01:08:37;2.63;;;2.43;;
38023;SDS011;23834;48.080;11.682;2023-07-20T01:11:16;2.30;;;2.00;;
38023;SDS011;23834;48.080;11.682;2023-07-20T01:13:41;3.30;;;2.17;;
38023;SDS011;23834;48.080;11.682;2023-07-20T01:16:07;2.33;;;2.13;;
38023;SDS011;23834;48.080;11.682;2023-07-20T01:18:33;2.47;;;2.27;;
38023;SDS011;23834;48.080;11.682;2023-07-20T01:20:59;2.27;;;2.00;;
38023;SDS011;23834;48.080;11.682;2023-07-20T01:23:38;2.53;;;2.33;;
38023;SDS011;23834;48.080;11.682;2023-07-20T01:26:18;2.27;;;2.07;;
38023;SDS011;23834;48.080;11.682;2023-07-20T01:31:30;2.37;;;2.17;;
38023;SDS011;23834;48.080;11.682;2023-07-20T01:33:57;4.77;;;2.47;;
38023;SDS011;23834;48.080;11.682;2023-07-20T01:36:23;2.13;;;2.03;;
38023;SDS011;23834;48.080;11.682;2023-07-20T01:38:49;2.40;;;2.20;;
38023;SDS011;23834;48.080;11.682;2023-07-20T01:41:15;2.20;;;2.00;;
38023;SDS011;23834;48.080;11.682;2023-07-20T01:43:40;2.20;;;2.00;;
38023;SDS011;23834;48.080;11.682;2023-07-20T01:46:05;2.53;;;2.33;;
38023;SDS011;23834;48.080;11.682;2023-07-20T01:48:31;2.50;;;2.30;;
38023;SDS011;23834;48.080;11.682;2023-07-20T01:50:56;2.30;;;2.10;;
38023;SDS011;23834;48.080;11.682;2023-07-20T01:53:22;2.00;;;1.90;;
38023;SDS011;23834;48.080;11.682;2023-07-20T01:55:47;2.37;;;2.27;;
38023;SDS011;23834;48.080;11.682;2023-07-20T01:58:12;2.33;;;2.23;;
38023;SDS011;23834;48.080;11.682;2023-07-20T02:00:37;1.80;;;1.70;;
38023;SDS011;23834;48.080;11.682;2023-07-20T02:03:03;2.20;;;2.03;;
38023;SDS011;23834;48.080;11.682;2023-07-20T02:05:28;2.80;;;2.40;;
38023;SDS011;23834;48.080;11.682;2023-07-20T02:07:53;1.87;;;1.77;;
38023;SDS011;23834;48.080;11.682;2023-07-20T02:10:18;2.10;;;2.00;;
38023;SDS011;23834;48.080;11.682;2023-07-20T02:12:44;2.97;;;2.30;;
38023;SDS011;23834;48.080;11.682;2023-07-20T02:15:09;2.93;;;2.33;;
38023;SDS011;23834;48.080;11.682;2023-07-20T02:17:34;2.53;;;2.33;;
38023;SDS011;23834;48.080;11.682;2023-07-20T02:19:59;1.97;;;1.77;;
38023;SDS011;23834;48.080;11.682;2023-07-20T02:22:25;2.00;;;1.90;;
38023;SDS011;23834;48.080;11.682;2023-07-20T02:24:50;1.70;;;1.60;;
38023;SDS011;23834;48.080;11.682;2023-07-20T02:27:15;2.47;;;2.27;;
38023;SDS011;23834;48.080;11.682;2023-07-20T02:29:41;2.40;;;2.20;;
38023;SDS011;23834;48.080;11.682;2023-07-20T02:32:06;2.70;;;2.27;;
38023;SDS011;23834;48.080;11.682;2023-07-20T02:34:32;2.43;;;2.23;;
38023;SDS011;23834;48.080;11.682;2023-07-20T02:36:58;2.10;;;1.90;;
38023;SDS011;23834;48.080;11.682;2023-07-20T02:39:25;1.90;;;1.80;;
38023;SDS011;23834;48.080;11.682;2023-07-20T02:41:51;2.10;;;1.90;;
38023;SDS011;23834;48.080;11.682;2023-07-20T02:44:16;1.77;;;1.63;;
38023;SDS011;23834;48.080;11.682;2023-07-20T02:46:42;2.47;;;2.27;;
38023;SDS011;23834;48.080;11.682;2023-07-20T02:49:07;2.20;;;2.00;;
38023;SDS011;23834;48.080;11.682;2023-07-20T02:51:32;2.43;;;2.23;;
38023;SDS011;23834;48.080;11.682;2023-07-20T02:53:57;2.37;;;2.17;;
38023;SDS011;23834;48.080;11.682;2023-07-20T02:56:22;2.40;;;2.20;;
38023;SDS011;23834;48.080;11.682;2023-07-20T02:58:48;2.90;;;2.50;;
38023;SDS011;23834;48.080;11.682;2023-07-20T03:01:13;2.10;;;1.90;;
38023;SDS011;23834;48.080;11.682;2023-07-20T03:03:40;2.50;;;2.30;;
38023;SDS011;23834;48.080;11.682;2023-07-20T03:06:05;2.47;;;2.27;;
38023;SDS011;23834;48.080;11.682;2023-07-20T03:08:30;2.37;;;2.17;;
38023;SDS011;23834;48.080;11.682;2023-07-20T03:10:56;2.57;;;2.37;;
38023;SDS011;23834;48.080;11.682;2023-07-20T03:13:21;2.13;;;1.73;;
38023;SDS011;23834;48.080;11.682;2023-07-20T03:15:46;2.03;;;1.93;;
38023;SDS011;23834;48.080;11.682;2023-07-20T03:18:11;2.33;;;2.13;;
38023;SDS011;23834;48.080;11.682;2023-07-20T03:20:37;2.10;;;2.00;;
38023;SDS011;23834;48.080;11.682;2023-07-20T03:23:03;2.10;;;2.00;;
38023;SDS011;23834;48.080;11.682;2023-07-20T03:25:28;3.50;;;2.00;;
38023;SDS011;23834;48.080;11.682;2023-07-20T03:27:53;1.93;;;1.83;;
38023;SDS011;23834;48.080;11.682;2023-07-20T03:30:18;1.97;;;1.83;;
38023;SDS011;23834;48.080;11.682;2023-07-20T03:32:43;2.13;;;1.93;;
38023;SDS011;23834;48.080;11.682;2023-07-20T03:35:08;2.43;;;2.10;;
38023;SDS011;23834;48.080;11.682;2023-07-20T03:37:34;2.83;;;1.97;;
38023;SDS011;23834;48.080;11.682;2023-07-20T03:40:00;2.17;;;2.00;;
38023;SDS011;23834;48.080;11.682;2023-07-20T03:42:25;2.40;;;2.20;;
38023;SDS011;23834;48.080;11.682;2023-07-20T03:44:51;1.77;;;1.50;;
38023;SDS011;23834;48.080;11.682;2023-07-20T03:47:16;3.47;;;1.90;;
38023;SDS011;23834;48.080;11.682;2023-07-20T03:49:41;2.00;;;1.80;;
38023;SDS011;23834;48.080;11.682;2023-07-20T03:52:07;3.80;;;2.07;;
38023;SDS011;23834;48.080;11.682;2023-07-20T03:54:32;2.53;;;2.10;;
38023;SDS011;23834;48.080;11.682;2023-07-20T03:56:57;2.07;;;1.93;;
38023;SDS011;23834;48.080;11.682;2023-07-20T03:59:23;1.97;;;1.77;;
38023;SDS011;23834;48.080;11.682;2023-07-20T04:01:48;1.90;;;1.70;;
38023;SDS011;23834;48.080;11.682;2023-07-20T04:04:15;2.00;;;1.90;;
38023;SDS011;23834;48.080;11.682;2023-07-20T04:06:40;2.10;;;1.90;;
38023;SDS011;23834;48.080;11.682;2023-07-20T04:09:05;2.00;;;1.90;;
38023;SDS011;23834;48.080;11.682;2023-07-20T04:11:31;1.97;;;1.87;;
38023;SDS011;23834;48.080;11.682;2023-07-20T04:13:56;1.63;;;1.53;;
38023;SDS011;23834;48.080;11.682;2023-07-20T04:16:21;2.20;;;2.00;;
38023;SDS011;23834;48.080;11.682;2023-07-20T04:18:46;2.70;;;1.80;;
38023;SDS011;23834;48.080;11.682;2023-07-20T04:21:12;1.80;;;1.70;;
38023;SDS011;23834;48.080;11.682;2023-07-20T04:23:37;2.17;;;2.07;;
38023;SDS011;23834;48.080;11.682;2023-07-20T04:26:02;1.80;;;1.70;;
38023;SDS011;23834;48.080;11.682;2023-07-20T04:28:27;2.20;;;2.00;;
38023;SDS011;23834;48.080;11.682;2023-07-20T04:30:52;1.80;;;1.70;;
38023;SDS011;23834;48.080;11.682;2023-07-20T04:33:18;2.27;;;1.80;;
38023;SDS011;23834;48.080;11.682;2023-07-20T04:35:53;2.13;;;1.83;;
38023;SDS011;23834;48.080;11.682;2023-07-20T04:38:19;2.42;;;1.75;;
38023;SDS011;23834;48.080;11.682;2023-07-20T04:40:45;2.10;;;1.90;;
38023;SDS011;23834;48.080;11.682;2023-07-20T04:43:10;2.10;;;1.80;;
38023;SDS011;23834;48.080;11.682;2023-07-20T04:45:35;1.70;;;1.60;;
38023;SDS011;23834;48.080;11.682;2023-07-20T04:48:01;1.90;;;1.80;;
38023;SDS011;23834;48.080;11.682;2023-07-20T04:50:26;1.70;;;1.60;;
38023;SDS011;23834;48.080;11.682;2023-07-20T04:52:51;1.67;;;1.57;;
38023;SDS011;23834;48.080;11.682;2023-07-20T04:55:16;1.90;;;1.80;;
38023;SDS011;23834;48.080;11.682;2023-07-20T04:57:41;1.40;;;1.30;;
38023;SDS011;23834;48.080;11.682;2023-07-20T05:00:07;2.43;;;1.77;;
38023;SDS011;23834;48.080;11.682;2023-07-20T05:02:32;2.10;;;1.80;;
38023;SDS011;23834;48.080;11.682;2023-07-20T05:04:57;2.00;;;1.80;;
38023;SDS011;23834;48.080;11.682;2023-07-20T05:07:22;1.60;;;1.50;;
38023;SDS011;23834;48.080;11.682;2023-07-20T05:09:47;1.63;;;1.40;;
38023;SDS011;23834;48.080;11.682;2023-07-20T05:12:13;1.80;;;1.70;;
38023;SDS011;23834;48.080;11.682;2023-07-20T05:14:38;1.87;;;1.77;;
38023;SDS011;23834;48.080;11.682;2023-07-20T05:17:04;1.23;;;1.23;;
38023;SDS011;23834;48.080;11.682;2023-07-20T05:19:29;1.70;;;1.60;;
38023;SDS011;23834;48.080;11.682;2023-07-20T05:21:54;1.60;;;1.50;;
38023;SDS011;23834;48.080;11.682;2023-07-20T05:24:19;2.13;;;1.97;;
38023;SDS011;23834;48.080;11.682;2023-07-20T05:26:44;1.60;;;1.50;;
38023;SDS011;23834;48.080;11.682;2023-07-20T05:29:09;1.70;;;1.60;;
38023;SDS011;23834;48.080;11.682;2023-07-20T05:31:35;2.07;;;1.87;;
38023;SDS011;23834;48.080;11.682;2023-07-20T05:34:00;1.87;;;1.63;;
38023;SDS011;23834;48.080;11.682;2023-07-20T05:36:26;2.07;;;1.93;;
38023;SDS011;23834;48.080;11.682;2023-07-20T05:38:52;1.57;;;1.47;;
38023;SDS011;23834;48.080;11.682;2023-07-20T05:41:17;1.63;;;1.53;;
38023;SDS011;23834;48.080;11.682;2023-07-20T05:43:42;2.10;;;1.80;;
38023;SDS011;23834;48.080;11.682;2023-07-20T05:46:07;1.73;;;1.63;;
38023;SDS011;23834;48.080;11.682;2023-07-20T05:48:32;1.50;;;1.40;;
38023;SDS011;23834;48.080;11.682;2023-07-20T05:50:58;1.60;;;1.50;;
38023;SDS011;23834;48.080;11.682;2023-07-20T05:53:23;1.73;;;1.63;;
38023;SDS011;23834;48.080;11.682;2023-07-20T05:55:54;1.80;;;1.70;;
38023;SDS011;23834;48.080;11.682;2023-07-20T05:58:19;1.70;;;1.50;;
38023;SDS011;23834;48.080;11.682;2023-07-20T06:00:47;2.70;;;1.77;;
38023;SDS011;23834;48.080;11.682;2023-07-20T06:03:12;1.70;;;1.60;;
38023;SDS011;23834;48.080;11.682;2023-07-20T06:05:37;2.03;;;1.70;;
38023;SDS011;23834;48.080;11.682;2023-07-20T06:08:02;1.80;;;1.70;;
38023;SDS011;23834;48.080;11.682;2023-07-20T06:10:28;1.60;;;1.50;;
38023;SDS011;23834;48.080;11.682;2023-07-20T06:12:53;1.60;;;1.50;;
38023;SDS011;23834;48.080;11.682;2023-07-20T06:15:31;1.63;;;1.53;;
38023;SDS011;23834;48.080;11.682;2023-07-20T06:17:56;1.97;;;1.70;;
38023;SDS011;23834;48.080;11.682;2023-07-20T06:20:22;1.90;;;1.77;;
38023;SDS011;23834;48.080;11.682;2023-07-20T06:22:48;1.57;;;1.43;;
38023;SDS011;23834;48.080;11.682;2023-07-20T06:25:13;1.63;;;1.53;;
38023;SDS011;23834;48.080;11.682;2023-07-20T06:27:38;2.03;;;1.93;;
38023;SDS011;23834;48.080;11.682;2023-07-20T06:30:03;1.73;;;1.63;;
38023;SDS011;23834;48.080;11.682;2023-07-20T06:32:29;2.17;;;1.33;;
38023;SDS011;23834;48.080;11.682;2023-07-20T06:34:54;1.50;;;1.40;;
38023;SDS011;23834;48.080;11.682;2023-07-20T06:37:19;1.80;;;1.70;;
38023;SDS011;23834;48.080;11.682;2023-07-20T06:39:45;1.50;;;1.40;;
38023;SDS011;23834;48.080;11.682;2023-07-20T06:42:10;2.20;;;1.73;;
38023;SDS011;23834;48.080;11.682;2023-07-20T06:44:35;1.60;;;1.50;;
38023;SDS011;23834;48.080;11.682;2023-07-20T06:47:01;1.77;;;1.67;;
38023;SDS011;23834;48.080;11.682;2023-07-20T06:49:26;1.87;;;1.77;;
38023;SDS011;23834;48.080;11.682;2023-07-20T06:51:52;2.70;;;1.73;;
38023;SDS011;23834;48.080;11.682;2023-07-20T06:54:17;2.07;;;1.73;;
38023;SDS011;23834;48.080;11.682;2023-07-20T06:56:42;1.73;;;1.63;;
38023;SDS011;23834;48.080;11.682;2023-07-20T06:59:07;1.67;;;1.57;;
38023;SDS011;23834;48.080;11.682;2023-07-20T07:01:33;1.73;;;1.57;;
38023;SDS011;23834;48.080;11.682;2023-07-20T07:03:58;2.27;;;1.90;;
38023;SDS011;23834;48.080;11.682;2023-07-20T07:06:23;1.70;;;1.60;;
38023;SDS011;23834;48.080;11.682;2023-07-20T07:08:48;1.40;;;1.30;;
38023;SDS011;23834;48.080;11.682;2023-07-20T07:11:13;2.00;;;1.80;;
38023;SDS011;23834;48.080;11.682;2023-07-20T07:13:38;1.97;;;1.80;;
38023;SDS011;23834;48.080;11.682;2023-07-20T07:16:04;1.90;;;1.80;;
38023;SDS011;23834;48.080;11.682;2023-07-20T07:18:29;1.60;;;1.50;;
38023;SDS011;23834;48.080;11.682;2023-07-20T07:20:54;1.60;;;1.50;;
38023;SDS011;23834;48.080;11.682;2023-07-20T07:23:19;1.70;;;1.60;;
38023;SDS011;23834;48.080;11.682;2023-07-20T07:25:45;1.90;;;1.60;;
38023;SDS011;23834;48.080;11.682;2023-07-20T07:28:10;1.90;;;1.80;;
38023;SDS011;23834;48.080;11.682;2023-07-20T07:30:35;1.90;;;1.80;;
38023;SDS011;23834;48.080;11.682;2023-07-20T07:33:01;1.47;;;1.37;;
38023;SDS011;23834;48.080;11.682;2023-07-20T07:35:26;1.60;;;1.50;;
38023;SDS011;23834;48.080;11.682;2023-07-20T07:37:51;1.53;;;1.40;;
38023;SDS011;23834;48.080;11.682;2023-07-20T07:40:16;1.67;;;1.50;;
38023;SDS011;23834;48.080;11.682;2023-07-20T07:42:41;1.87;;;1.53;;
38023;SDS011;23834;48.080;11.682;2023-07-20T07:45:07;1.50;;;1.40;;
38023;SDS011;23834;48.080;11.682;2023-07-20T07:47:32;1.53;;;1.43;;
38023;SDS011;23834;48.080;11.682;2023-07-20T07:49:57;2.87;;;1.77;;
38023;SDS011;23834;48.080;11.682;2023-07-20T07:52:22;1.70;;;1.43;;
38023;SDS011;23834;48.080;11.682;2023-07-20T07:54:48;3.10;;;1.63;;
38023;SDS011;23834;48.080;11.682;2023-07-20T07:57:13;1.93;;;1.47;;
38023;SDS011;23834;48.080;11.682;2023-07-20T07:59:39;1.47;;;1.37;;
38023;SDS011;23834;48.080;11.682;2023-07-20T08:02:04;1.80;;;1.70;;
38023;SDS011;23834;48.080;11.682;2023-07-20T08:04:30;1.67;;;1.57;;
38023;SDS011;23834;48.080;11.682;2023-07-20T08:06:56;1.40;;;1.30;;
38023;SDS011;23834;48.080;11.682;2023-07-20T08:09:21;1.63;;;1.53;;
38023;SDS011;23834;48.080;11.682;2023-07-20T08:11:46;2.47;;;1.97;;
38023;SDS011;23834;48.080;11.682;2023-07-20T08:14:13;1.97;;;1.70;;
38023;SDS011;23834;48.080;11.682;2023-07-20T08:16:38;1.83;;;1.70;;
38023;SDS011;23834;48.080;11.682;2023-07-20T08:19:03;1.83;;;1.70;;
38023;SDS011;23834;48.080;11.682;2023-07-20T08:21:29;1.60;;;1.50;;
38023;SDS011;23834;48.080;11.682;2023-07-20T08:23:54;1.63;;;1.53;;
38023;SDS011;23834;48.080;11.682;2023-07-20T08:26:19;1.87;;;1.77;;
38023;SDS011;23834;48.080;11.682;2023-07-20T08:28:47;2.20;;;1.60;;
38023;SDS011;23834;48.080;11.682;2023-07-20T08:31:13;1.43;;;1.33;;
38023;SDS011;23834;48.080;11.682;2023-07-20T08:33:38;1.67;;;1.57;;
38023;SDS011;23834;48.080;11.682;2023-07-20T08:36:04;1.87;;;1.67;;
38023;SDS011;23834;48.080;11.682;2023-07-20T08:38:30;1.83;;;1.57;;
38023;SDS011;23834;48.080;11.682;2023-07-20T08:40:56;1.80;;;1.63;;
38023;SDS011;23834;48.080;11.682;2023-07-20T08:43:21;1.60;;;1.50;;
38023;SDS011;23834;48.080;11.682;2023-07-20T08:45:48;1.20;;;1.20;;
38023;SDS011;23834;48.080;11.682;2023-07-20T08:48:14;1.87;;;1.77;;
38023;SDS011;23834;48.080;11.682;2023-07-20T08:50:40;1.60;;;1.47;;
38023;SDS011;23834;48.080;11.682;2023-07-20T08:53:06;1.63;;;1.53;;
38023;SDS011;23834;48.080;11.682;2023-07-20T08:55:31;1.70;;;1.60;;
38023;SDS011;23834;48.080;11.682;2023-07-20T08:58:00;1.67;;;1.57;;
38023;SDS011;23834;48.080;11.682;2023-07-20T09:00:25;1.70;;;1.60;;
38023;SDS011;23834;48.080;11.682;2023-07-20T09:02:55;1.87;;;1.73;;
38023;SDS011;23834;48.080;11.682;2023-07-20T09:05:21;1.57;;;1.27;;
38023;SDS011;23834;48.080;11.682;2023-07-20T09:07:47;1.47;;;1.37;;
38023;SDS011;23834;48.080;11.682;2023-07-20T09:10:13;1.70;;;1.60;;
38023;SDS011;23834;48.080;11.682;2023-07-20T09:12:39;3.37;;;1.77;;
38023;SDS011;23834;48.080;11.682;2023-07-20T09:15:05;2.00;;;1.80;;
38023;SDS011;23834;48.080;11.682;2023-07-20T09:17:30;1.50;;;1.40;;
38023;SDS011;23834;48.080;11.682;2023-07-20T09:19:56;1.57;;;1.47;;
38023;SDS011;23834;48.080;11.682;2023-07-20T09:22:21;1.50;;;1.40;;
38023;SDS011;23834;48.080;11.682;2023-07-20T09:24:46;1.60;;;1.50;;
38023;SDS011;23834;48.080;11.682;2023-07-20T09:27:11;1.80;;;1.67;;
38023;SDS011;23834;48.080;11.682;2023-07-20T09:29:50;1.50;;;1.40;;
38023;SDS011;23834;48.080;11.682;2023-07-20T09:32:18;1.33;;;1.30;;
38023;SDS011;23834;48.080;11.682;2023-07-20T09:34:45;2.00;;;1.80;;
38023;SDS011;23834;48.080;11.682;2023-07-20T09:37:10;2.17;;;1.97;;
38023;SDS011;23834;48.080;11.682;2023-07-20T09:39:42;1.50;;;1.40;;
38023;SDS011;23834;48.080;11.682;2023-07-20T09:42:08;1.93;;;1.70;;
38023;SDS011;23834;48.080;11.682;2023-07-20T09:44:34;1.80;;;1.70;;
38023;SDS011;23834;48.080;11.682;2023-07-20T09:46:59;1.60;;;1.50;;
38023;SDS011;23834;48.080;11.682;2023-07-20T09:49:24;2.10;;;1.90;;
38023;SDS011;23834;48.080;11.682;2023-07-20T09:51:49;1.93;;;1.73;;
38023;SDS011;23834;48.080;11.682;2023-07-20T09:54:15;1.70;;;1.60;;
38023;SDS011;23834;48.080;11.682;2023-07-20T09:56:41;1.67;;;1.57;;
38023;SDS011;23834;48.080;11.682;2023-07-20T09:59:07;2.50;;;1.40;;
38023;SDS011;23834;48.080;11.682;2023-07-20T10:01:32;1.77;;;1.67;;
38023;SDS011;23834;48.080;11.682;2023-07-20T10:03:59;1.50;;;1.40;;
38023;SDS011;23834;48.080;11.682;2023-07-20T10:06:27;1.80;;;1.70;;
38023;SDS011;23834;48.080;11.682;2023-07-20T10:08:53;1.87;;;1.77;;
38023;SDS011;23834;48.080;11.682;2023-07-20T10:11:21;1.70;;;1.60;;
38023;SDS011;23834;48.080;11.682;2023-07-20T10:13:46;1.67;;;1.57;;
38023;SDS011;23834;48.080;11.682;2023-07-20T10:16:39;1.43;;;1.33;;
38023;SDS011;23834;48.080;11.682;2023-07-20T10:19:08;2.43;;;1.43;;
38023;SDS011;23834;48.080;11.682;2023-07-20T10:21:37;1.50;;;1.40;;
38023;SDS011;23834;48.080;11.682;2023-07-20T10:24:05;1.33;;;1.23;;
38023;SDS011;23834;48.080;11.682;2023-07-20T10:26:30;2.53;;;1.57;;
38023;SDS011;23834;48.080;11.682;2023-07-20T10:28:56;1.90;;;1.70;;
38023;SDS011;23834;48.080;11.682;2023-07-20T10:31:22;2.00;;;1.67;;
38023;SDS011;23834;48.080;11.682;2023-07-20T10:33:48;1.90;;;1.80;;
38023;SDS011;23834;48.080;11.682;2023-07-20T10:36:15;1.20;;;1.10;;
38023;SDS011;23834;48.080;11.682;2023-07-20T10:38:41;1.63;;;1.53;;
38023;SDS011;23834;48.080;11.682;2023-07-20T10:41:16;1.90;;;1.50;;
38023;SDS011;23834;48.080;11.682;2023-07-20T10:43:45;3.03;;;1.67;;
38023;SDS011;23834;48.080;11.682;2023-07-20T10:46:11;1.67;;;1.57;;
38023;SDS011;23834;48.080;11.682;2023-07-20T10:48:36;2.17;;;1.97;;
38023;SDS011;23834;48.080;11.682;2023-07-20T10:51:21;2.07;;;1.50;;
38023;SDS011;23834;48.080;11.682;2023-07-20T10:53:50;1.90;;;1.80;;
38023;SDS011;23834;48.080;11.682;2023-07-20T10:56:19;2.10;;;1.67;;
38023;SDS011;23834;48.080;11.682;2023-07-20T10:58:44;1.50;;;1.40;;
38023;SDS011;23834;48.080;11.682;2023-07-20T11:01:11;1.73;;;1.63;;
38023;SDS011;23834;48.080;11.682;2023-07-20T11:03:38;1.60;;;1.50;;
38023;SDS011;23834;48.080;11.682;2023-07-20T11:08:48;1.53;;;1.43;;
38023;SDS011;23834;48.080;11.682;2023-07-20T11:11:24;1.80;;;1.70;;
38023;SDS011;23834;48.080;11.682;2023-07-20T11:13:59;1.77;;;1.53;;
38023;SDS011;23834;48.080;11.682;2023-07-20T11:16:43;2.50;;;1.70;;
38023;SDS011;23834;48.080;11.682;2023-07-20T11:21:44;1.40;;;1.30;;
38023;SDS011;23834;48.080;11.682;2023-07-20T11:24:09;1.90;;;1.80;;
38023;SDS011;23834;48.080;11.682;2023-07-20T11:27:08;1.87;;;1.77;;
38023;SDS011;23834;48.080;11.682;2023-07-20T11:29:27;1.60;;;1.30;;
38023;SDS011;23834;48.080;11.682;2023-07-20T11:31:52;1.90;;;1.80;;
38023;SDS011;23834;48.080;11.682;2023-07-20T11:34:18;1.90;;;1.73;;
38023;SDS011;23834;48.080;11.682;2023-07-20T11:36:47;1.30;;;1.30;;
38023;SDS011;23834;48.080;11.682;2023-07-20T11:39:13;2.40;;;1.63;;
38023;SDS011;23834;48.080;11.682;2023-07-20T11:41:39;1.57;;;1.47;;
38023;SDS011;23834;48.080;11.682;2023-07-20T11:44:08;2.23;;;1.97;;
38023;SDS011;23834;48.080;11.682;2023-07-20T11:46:38;1.70;;;1.60;;
38023;SDS011;23834;48.080;11.682;2023-07-20T11:49:04;1.53;;;1.33;;
38023;SDS011;23834;48.080;11.682;2023-07-20T11:51:29;1.70;;;1.60;;
38023;SDS011;23834;48.080;11.682;2023-07-20T11:53:55;1.80;;;1.70;;
38023;SDS011;23834;48.080;11.682;2023-07-20T11:56:20;1.73;;;1.60;;
38023;SDS011;23834;48.080;11.682;2023-07-20T11:58:45;1.63;;;1.53;;
38023;SDS011;23834;48.080;11.682;2023-07-20T12:01:13;1.87;;;1.57;;
38023;SDS011;23834;48.080;11.682;2023-07-20T12:03:39;1.93;;;1.53;;
38023;SDS011;23834;48.080;11.682;2023-07-20T12:06:07;1.60;;;1.50;;
38023;SDS011;23834;48.080;11.682;2023-07-20T12:08:33;1.60;;;1.50;;
38023;SDS011;23834;48.080;11.682;2023-07-20T12:10:58;2.13;;;1.90;;
38023;SDS011;23834;48.080;11.682;2023-07-20T12:13:24;1.60;;;1.50;;
38023;SDS011;23834;48.080;11.682;2023-07-20T12:15:52;1.67;;;1.37;;
38023;SDS011;23834;48.080;11.682;2023-07-20T12:18:22;1.63;;;1.50;;
38023;SDS011;23834;48.080;11.682;2023-07-20T12:20:47;1.90;;;1.80;;
38023;SDS011;23834;48.080;11.682;2023-07-20T12:23:13;1.70;;;1.60;;
38023;SDS011;23834;48.080;11.682;2023-07-20T12:25:45;1.93;;;1.73;;
38023;SDS011;23834;48.080;11.682;2023-07-20T12:28:11;1.33;;;1.23;;
38023;SDS011;23834;48.080;11.682;2023-07-20T12:30:37;1.70;;;1.60;;
38023;SDS011;23834;48.080;11.682;2023-07-20T12:33:03;1.50;;;1.40;;
38023;SDS011;23834;48.080;11.682;2023-07-20T12:35:29;1.47;;;1.37;;
38023;SDS011;23834;48.080;11.682;2023-07-20T12:37:54;1.40;;;1.30;;
38023;SDS011;23834;48.080;11.682;2023-07-20T12:40:20;1.37;;;1.27;;
38023;SDS011;23834;48.080;11.682;2023-07-20T12:42:46;1.67;;;1.57;;
38023;SDS011;23834;48.080;11.682;2023-07-20T12:45:11;1.77;;;1.67;;
38023;SDS011;23834;48.080;11.682;2023-07-20T12:47:36;1.70;;;1.60;;
38023;SDS011;23834;48.080;11.682;2023-07-20T12:50:01;1.77;;;1.50;;
38023;SDS011;23834;48.080;11.682;2023-07-20T12:52:31;2.10;;;1.60;;
38023;SDS011;23834;48.080;11.682;2023-07-20T12:54:56;1.80;;;1.70;;
38023;SDS011;23834;48.080;11.682;2023-07-20T12:57:21;1.30;;;1.23;;
38023;SDS011;23834;48.080;11.682;2023-07-20T12:59:47;1.50;;;1.40;;
38023;SDS011;23834;48.080;11.682;2023-07-20T13:02:12;1.37;;;1.27;;
38023;SDS011;23834;48.080;11.682;2023-07-20T13:04:38;1.43;;;1.33;;
38023;SDS011;23834;48.080;11.682;2023-07-20T13:07:03;1.80;;;1.70;;
38023;SDS011;23834;48.080;11.682;2023-07-20T13:09:28;1.50;;;1.40;;
38023;SDS011;23834;48.080;11.682;2023-07-20T13:11:53;1.60;;;1.50;;
38023;SDS011;23834;48.080;11.682;2023-07-20T13:14:18;1.87;;;1.53;;
38023;SDS011;23834;48.080;11.682;2023-07-20T13:16:44;1.60;;;1.50;;
38023;SDS011;23834;48.080;11.682;2023-07-20T13:19:09;1.97;;;1.57;;
38023;SDS011;23834;48.080;11.682;2023-07-20T13:21:34;2.20;;;1.97;;
38023;SDS011;23834;48.080;11.682;2023-07-20T13:23:59;1.77;;;1.67;;
38023;SDS011;23834;48.080;11.682;2023-07-20T13:26:24;2.73;;;1.67;;
38023;SDS011;23834;48.080;11.682;2023-07-20T13:28:50;1.57;;;1.47;;
38023;SDS011;23834;48.080;11.682;2023-07-20T13:31:15;1.83;;;1.63;;
38023;SDS011;23834;48.080;11.682;2023-07-20T13:33:42;2.17;;;1.50;;
38023;SDS011;23834;48.080;11.682;2023-07-20T13:36:07;2.23;;;1.77;;
38023;SDS011;23834;48.080;11.682;2023-07-20T13:38:32;1.83;;;1.73;;
38023;SDS011;23834;48.080;11.682;2023-07-20T13:40:58;1.43;;;1.33;;
38023;SDS011;23834;48.080;11.682;2023-07-20T13:43:23;1.60;;;1.43;;
38023;SDS011;23834;48.080;11.682;2023-07-20T13:45:48;1.50;;;1.40;;
38023;SDS011;23834;48.080;11.682;2023-07-20T13:48:13;1.40;;;1.30;;
38023;SDS011;23834;48.080;11.682;2023-07-20T13:50:39;1.60;;;1.50;;
38023;SDS011;23834;48.080;11.682;2023-07-20T13:53:04;1.80;;;1.70;;
38023;SDS011;23834;48.080;11.682;2023-07-20T13:55:29;1.57;;;1.47;;
38023;SDS011;23834;48.080;11.682;2023-07-20T13:57:56;1.50;;;1.40;;
38023;SDS011;23834;48.080;11.682;2023-07-20T14:00:21;1.90;;;1.77;;
38023;SDS011;23834;48.080;11.682;2023-07-20T14:02:46;2.80;;;1.50;;
38023;SDS011;23834;48.080;11.682;2023-07-20T14:05:11;1.60;;;1.50;;
38023;SDS011;23834;48.080;11.682;2023-07-20T14:07:36;1.67;;;1.57;;
38023;SDS011;23834;48.080;11.682;2023-07-20T14:10:02;1.53;;;1.43;;
38023;SDS011;23834;48.080;11.682;2023-07-20T14:12:28;1.47;;;1.37;;
38023;SDS011;23834;48.080;11.682;2023-07-20T14:14:53;1.60;;;1.50;;
38023;SDS011;23834;48.080;11.682;2023-07-20T14:17:19;1.80;;;1.70;;
38023;SDS011;23834;48.080;11.682;2023-07-20T14:19:44;1.50;;;1.40;;
38023;SDS011;23834;48.080;11.682;2023-07-20T14:22:09;1.77;;;1.67;;
38023;SDS011;23834;48.080;11.682;2023-07-20T14:24:34;1.70;;;1.60;;
38023;SDS011;23834;48.080;11.682;2023-07-20T14:26:59;1.57;;;1.47;;
38023;SDS011;23834;48.080;11.682;2023-07-20T14:29:25;1.60;;;1.50;;
38023;SDS011;23834;48.080;11.682;2023-07-20T14:31:51;1.80;;;1.53;;
38023;SDS011;23834;48.080;11.682;2023-07-20T14:34:17;1.30;;;1.20;;
38023;SDS011;23834;48.080;11.682;2023-07-20T14:36:44;1.77;;;1.67;;